Ana Sayfa
METAR-TAF:

METAR-TAF

Havaalanları :

Cooma, Avustralya

Enlem: 36-18-00S, Boylam: 148-58-24E, yükseklik: 947 m

Güncel hava durumu gözlemi

Rapor saat 13:00 UTC de 26 dakika önce yapıldı.
Rüzgar kuzeydan 7 kt
Sıcaklık 10°C
Nem 100%
Basınç 1022 hPa
Görüş mesafesi: 4600 m
3000 ft yükseklikte çok bulutlu

METAR: YCOM 081300Z AUTO 01007KT 4600 // OVC030 10/10 Q1022

Saat: 00:26 (13:26 UTC)


TAF: eksik

4.000'den fazla havaalanı için hava durumu gözlemleri ve tahminleri (METAR ve TAF raporları).

Kullanılabilir istasyonlar harita üzerinde sarı ve kırmızı noktalarla gösterilir.

İstasyonun adını görmek için fareyi noktanın üzerinde gezdirin.

Sonrasında hava gözlem ve tahminlerini görmek için tıklayın.

Haritayı değiştirmek için: yaklaştırmak için siyah artı işaretli yeşil düğmeye ve uzaklaştırmak için de eksi işaretli düğmeye hızla tıklayın; bitişik haritalar için yeşil okları kullanın.


METAR-TAF: